createdAt,value
2023-02-03T04:56:36.647Z,6.67
2023-02-03T04:59:03.579Z,6.38
2023-02-03T05:01:30.212Z,3.60
2023-02-03T05:03:56.738Z,4.47
2023-02-03T05:06:28.939Z,3.75
2023-02-03T05:08:55.671Z,5.30
2023-02-03T05:11:22.795Z,4.53
2023-02-03T05:13:50.328Z,4.07
2023-02-03T05:16:16.918Z,5.18
2023-02-03T05:18:43.453Z,5.00
2023-02-03T05:21:11.068Z,3.30
2023-02-03T05:23:37.641Z,6.90
2023-02-03T05:26:04.671Z,6.50
2023-02-03T05:28:31.284Z,5.32
2023-02-03T05:31:02.184Z,4.70
2023-02-03T05:33:29.443Z,3.83
2023-02-03T05:35:56.150Z,4.90
2023-02-03T05:38:22.905Z,7.22
2023-02-03T05:41:09.014Z,3.90
2023-02-03T05:43:35.901Z,4.55
2023-02-03T05:46:06.318Z,3.23
2023-02-03T05:48:33.117Z,4.75
2023-02-03T05:50:59.612Z,7.28
2023-02-03T05:53:27.198Z,5.30
2023-02-03T05:55:53.807Z,6.30
2023-02-03T05:58:20.357Z,5.63
2023-02-03T06:00:47.335Z,8.10
2023-02-03T06:03:13.962Z,8.85
2023-02-03T06:05:41.414Z,4.25
2023-02-03T06:08:08.793Z,6.78
2023-02-03T06:10:35.567Z,4.67
2023-02-03T06:13:13.666Z,5.10
2023-02-03T06:15:40.515Z,8.98
2023-02-03T06:18:07.682Z,5.93
2023-02-03T06:20:35.578Z,6.25
2023-02-03T06:23:02.188Z,6.73
2023-02-03T06:25:28.838Z,4.13
2023-02-03T06:27:59.279Z,4.70
2023-02-03T06:30:26.009Z,8.15
2023-02-03T06:32:52.908Z,5.82
2023-02-03T06:35:19.445Z,4.50
2023-02-03T06:37:46.009Z,3.85
2023-02-03T06:40:13.072Z,8.25
2023-02-03T06:42:39.576Z,4.55
2023-02-03T06:45:06.555Z,5.18
2023-02-03T06:47:33.118Z,4.73
2023-02-03T06:49:59.891Z,3.50
2023-02-03T06:52:26.509Z,3.72
2023-02-03T06:54:53.090Z,6.13
2023-02-03T06:57:19.913Z,7.65
2023-02-03T06:59:46.492Z,4.40
2023-02-03T07:02:13.143Z,4.32
2023-02-03T07:04:39.868Z,4.47
2023-02-03T07:07:06.459Z,6.63
2023-02-03T07:09:32.999Z,3.85
2023-02-03T07:11:59.502Z,6.97
2023-02-03T07:14:26.162Z,5.05
2023-02-03T07:16:54.408Z,5.32
2023-02-03T07:19:21.058Z,4.55
2023-02-03T07:21:47.693Z,6.18
2023-02-03T07:24:14.429Z,4.87
2023-02-03T07:26:41.074Z,4.78
2023-02-03T07:29:07.715Z,4.18
2023-02-03T07:31:35.729Z,4.65
2023-02-03T07:34:03.135Z,7.30
2023-02-03T07:36:29.747Z,7.53
2023-02-03T07:38:59.200Z,4.03
2023-02-03T07:41:25.692Z,4.55
2023-02-03T07:43:52.314Z,6.25
2023-02-03T07:46:19.031Z,4.07
2023-02-03T07:48:45.605Z,6.53
2023-02-03T07:51:12.124Z,5.20
2023-02-03T07:53:38.667Z,5.65
2023-02-03T07:56:05.662Z,7.07
2023-02-03T07:58:32.726Z,5.35
2023-02-03T08:00:59.935Z,5.43
2023-02-03T08:03:26.757Z,6.75
2023-02-03T08:05:53.621Z,5.85
2023-02-03T08:08:20.368Z,8.23
2023-02-03T08:10:46.989Z,8.15
2023-02-03T08:13:13.806Z,4.43
2023-02-03T08:15:40.382Z,5.75
2023-02-03T08:18:08.891Z,6.22
2023-02-03T08:20:35.787Z,5.25
2023-02-03T08:23:02.399Z,7.68
2023-02-03T08:25:29.349Z,8.63
2023-02-03T08:27:55.941Z,7.85
2023-02-03T08:30:23.313Z,9.07
2023-02-03T08:32:49.859Z,7.30
2023-02-03T08:35:16.428Z,7.57
2023-02-03T08:37:43.079Z,7.17
2023-02-03T08:40:10.805Z,11.35
2023-02-03T08:42:37.595Z,8.98
2023-02-03T08:45:05.372Z,8.52
2023-02-03T08:47:32.076Z,12.70
2023-02-03T08:49:58.789Z,12.70
2023-02-03T08:52:25.387Z,7.10
2023-02-03T08:54:52.019Z,8.48
2023-02-03T08:57:18.599Z,8.95
2023-02-03T08:59:45.229Z,12.15
2023-02-03T09:02:15.766Z,11.40
2023-02-03T09:04:43.115Z,10.57
2023-02-03T09:07:09.765Z,8.35
2023-02-03T09:09:36.300Z,11.30
2023-02-03T09:12:05.424Z,8.15
2023-02-03T09:14:33.192Z,7.60
2023-02-03T09:17:01.368Z,8.23
2023-02-03T09:19:34.754Z,7.90
2023-02-03T09:22:02.287Z,8.60
2023-02-03T09:24:29.354Z,8.50
2023-02-03T09:26:56.091Z,11.83
2023-02-03T09:29:23.284Z,8.75
2023-02-03T09:31:53.030Z,12.38
2023-02-03T09:34:20.604Z,10.95
2023-02-03T09:36:47.461Z,13.10
2023-02-03T09:39:14.039Z,11.00
2023-02-03T09:41:50.628Z,10.38
2023-02-03T09:44:33.592Z,12.00
2023-02-03T09:47:18.948Z,11.02
2023-02-03T09:50:16.970Z,10.82
2023-02-03T09:52:44.335Z,9.37
2023-02-03T09:55:29.572Z,13.07
2023-02-03T09:58:01.834Z,8.45
2023-02-03T10:00:33.242Z,8.45
2023-02-03T10:03:07.149Z,10.43
2023-02-03T10:05:52.861Z,9.70
2023-02-03T10:08:48.655Z,10.15
2023-02-03T10:11:21.727Z,7.40
2023-02-03T10:14:10.102Z,10.52
2023-02-03T10:17:04.748Z,8.45
2023-02-03T10:19:42.579Z,7.70
2023-02-03T10:22:13.976Z,8.10
2023-02-03T10:24:45.197Z,8.90
2023-02-03T10:27:20.943Z,9.50
2023-02-03T10:30:05.971Z,9.23
2023-02-03T10:32:33.787Z,16.83
2023-02-03T10:35:01.958Z,8.63
2023-02-03T10:37:35.285Z,12.10
2023-02-03T10:40:02.298Z,9.68
2023-02-03T10:42:50.383Z,9.73
2023-02-03T10:45:17.378Z,9.37
2023-02-03T10:47:49.784Z,10.13
2023-02-03T10:50:21.254Z,8.27
2023-02-03T10:52:48.201Z,7.35
2023-02-03T10:55:27.053Z,8.48
2023-02-03T10:57:54.799Z,7.33
2023-02-03T11:00:31.916Z,8.88
2023-02-03T11:03:07.209Z,8.00
2023-02-03T11:05:34.045Z,8.77
2023-02-03T11:08:00.641Z,6.47
2023-02-03T11:10:38.950Z,8.13
2023-02-03T11:13:25.697Z,6.25
2023-02-03T11:16:01.339Z,6.40
2023-02-03T11:18:42.471Z,7.88
2023-02-03T11:21:17.293Z,7.25
2023-02-03T11:23:54.427Z,6.67
2023-02-03T11:26:36.205Z,8.48
2023-02-03T11:29:06.843Z,12.23
2023-02-03T11:31:35.269Z,9.38
2023-02-03T11:34:07.519Z,5.95
2023-02-03T11:36:35.826Z,6.40
2023-02-03T11:39:20.645Z,6.88
2023-02-03T11:41:48.189Z,7.07
2023-02-03T11:44:20.820Z,7.75
2023-02-03T11:46:50.352Z,7.68
2023-02-03T11:49:35.239Z,7.77
2023-02-03T11:52:04.759Z,8.02
2023-02-03T11:54:48.608Z,8.50
2023-02-03T11:57:30.530Z,7.65
2023-02-03T12:00:10.739Z,6.88
2023-02-03T12:02:43.082Z,6.40
2023-02-03T12:05:50.719Z,7.55
2023-02-03T12:08:29.351Z,6.95
2023-02-03T12:11:05.079Z,6.43
2023-02-03T12:13:40.252Z,7.10
2023-02-03T12:16:38.355Z,5.77
2023-02-03T12:19:20.121Z,6.05
2023-02-03T12:22:26.729Z,7.10
2023-02-03T12:25:31.256Z,6.20
2023-02-03T12:28:32.462Z,4.30
2023-02-03T12:31:12.235Z,5.47
2023-02-03T12:33:44.318Z,5.15
2023-02-03T12:36:53.621Z,5.35
2023-02-03T12:39:33.804Z,5.00
2023-02-03T12:42:04.402Z,5.50
2023-02-03T12:44:54.296Z,6.40
2023-02-03T12:47:28.403Z,5.47
2023-02-03T12:49:58.258Z,7.18
2023-02-03T12:53:01.840Z,4.20
2023-02-03T12:55:34.724Z,4.88
2023-02-03T12:58:05.752Z,4.37
2023-02-03T13:00:48.793Z,5.30
2023-02-03T13:03:18.514Z,5.53
2023-02-03T13:06:10.560Z,5.38
2023-02-03T13:09:21.178Z,5.75
2023-02-03T13:12:08.265Z,4.53
2023-02-03T13:14:42.860Z,6.50
2023-02-03T13:17:26.280Z,5.80
2023-02-03T13:20:00.228Z,5.50
2023-02-03T13:22:27.766Z,6.82
2023-02-03T13:25:05.777Z,7.60
2023-02-03T13:28:00.098Z,6.22
2023-02-03T13:30:52.643Z,7.75
2023-02-03T13:33:53.174Z,7.03
2023-02-03T13:36:47.164Z,8.32
2023-02-03T13:39:35.424Z,8.57
2023-02-03T13:42:18.332Z,8.90
2023-02-03T13:44:47.026Z,9.18
2023-02-03T13:47:44.348Z,9.63
2023-02-03T13:50:22.232Z,8.85
2023-02-03T13:53:04.019Z,10.87
2023-02-03T13:55:35.913Z,8.93
2023-02-03T13:58:04.325Z,8.88
2023-02-03T14:00:45.835Z,8.02
2023-02-03T14:03:25.778Z,8.40
2023-02-03T14:06:03.108Z,8.03
2023-02-03T14:08:29.648Z,10.52
2023-02-03T14:11:33.588Z,9.98
2023-02-03T14:14:20.862Z,7.57
2023-02-03T14:16:48.721Z,9.02
2023-02-03T14:19:30.783Z,8.93
2023-02-03T14:22:00.008Z,8.02
2023-02-03T14:24:47.237Z,8.50
2023-02-03T14:27:25.477Z,9.38
2023-02-03T14:30:12.880Z,11.48
2023-02-03T14:32:52.776Z,10.20
2023-02-03T14:35:32.086Z,8.68
2023-02-03T14:38:08.081Z,7.97
2023-02-03T14:40:39.945Z,10.07
2023-02-03T14:43:12.682Z,8.90
2023-02-03T14:45:58.044Z,12.37
2023-02-03T14:48:45.744Z,8.63
2023-02-03T14:51:39.583Z,8.65
2023-02-03T14:54:17.880Z,12.15
2023-02-03T14:57:16.580Z,9.55
2023-02-03T14:59:49.651Z,9.67
2023-02-03T15:02:27.572Z,10.30
2023-02-03T15:05:12.554Z,10.10
2023-02-03T15:07:45.514Z,11.60
2023-02-03T15:10:23.716Z,11.50
2023-02-03T15:12:55.250Z,8.83
2023-02-03T15:15:28.405Z,8.48
2023-02-03T15:18:00.373Z,12.27
2023-02-03T15:28:33.921Z,11.73
2023-02-03T15:31:18.038Z,9.73
2023-02-03T15:33:45.066Z,13.45
2023-02-03T15:36:17.380Z,10.75
2023-02-03T15:38:50.043Z,9.80
2023-02-03T15:41:24.327Z,12.00
2023-02-03T15:43:57.336Z,13.15
2023-02-03T15:46:27.259Z,8.52
2023-02-03T15:49:30.987Z,9.38
2023-02-03T15:52:04.641Z,7.03
2023-02-03T15:54:41.667Z,6.57
2023-02-03T15:57:24.811Z,5.65
2023-02-03T15:59:57.843Z,6.43
2023-02-03T16:02:33.495Z,5.35
2023-02-03T16:05:23.188Z,4.70
2023-02-03T16:07:49.863Z,4.67
2023-02-03T16:10:28.660Z,4.90
2023-02-03T16:13:18.116Z,4.97
2023-02-03T16:15:44.736Z,4.85
2023-02-03T16:18:20.465Z,5.43
2023-02-03T16:20:51.104Z,6.70
2023-02-03T16:23:20.654Z,4.85
2023-02-03T16:26:17.087Z,4.85
2023-02-03T16:29:02.660Z,5.00
2023-02-03T16:31:47.885Z,5.82
2023-02-03T16:34:37.383Z,3.70
2023-02-03T16:37:42.455Z,3.90
2023-02-03T16:40:29.233Z,3.05
2023-02-03T16:43:14.514Z,4.03
2023-02-03T16:45:59.877Z,4.32
2023-02-03T16:48:45.049Z,3.73
2023-02-03T16:51:15.959Z,4.18
2023-02-03T16:53:44.759Z,3.97
2023-02-03T16:56:12.302Z,3.33
2023-02-03T16:58:38.913Z,4.05
2023-02-03T17:01:06.300Z,5.23
2023-02-03T17:03:35.137Z,4.72
2023-02-03T17:06:09.997Z,4.38
2023-02-03T17:08:37.505Z,4.10
2023-02-03T17:11:06.631Z,5.18
2023-02-03T17:13:33.528Z,5.17
2023-02-03T17:16:00.418Z,4.35
2023-02-03T17:18:27.264Z,5.82
2023-02-03T17:20:55.470Z,5.22
2023-02-03T17:23:23.037Z,5.82
2023-02-03T17:25:50.086Z,5.80
2023-02-03T17:28:17.391Z,6.47
2023-02-03T17:30:44.242Z,4.28
2023-02-03T17:33:13.973Z,4.63
2023-02-03T17:35:48.580Z,4.40
2023-02-03T17:38:15.160Z,4.40
2023-02-03T17:54:27.708Z,5.97
2023-02-03T17:56:54.297Z,5.25
2023-02-03T17:59:20.928Z,5.63
2023-02-03T18:01:47.462Z,5.80
2023-02-03T18:04:14.244Z,6.37
2023-02-03T18:06:40.892Z,7.28
2023-02-03T18:09:10.197Z,5.20
2023-02-03T18:11:41.749Z,6.28
2023-02-03T18:14:09.855Z,6.53
2023-02-03T18:16:36.523Z,6.80
2023-02-03T18:19:05.837Z,6.00
2023-02-03T18:21:32.659Z,7.13
2023-02-03T18:24:01.699Z,5.75
2023-02-03T18:26:36.420Z,6.82
2023-02-03T18:29:06.928Z,4.83
2023-02-03T18:31:33.558Z,6.40
2023-02-03T18:34:03.903Z,6.10
2023-02-03T18:36:30.533Z,5.35
2023-02-03T18:38:57.102Z,7.47
2023-02-03T18:41:24.957Z,6.87
2023-02-03T18:43:51.854Z,5.78
2023-02-03T18:46:21.855Z,4.68
2023-02-03T18:48:48.669Z,4.65
2023-02-03T18:51:17.391Z,6.78
2023-02-03T18:53:46.688Z,4.97
2023-02-03T18:56:21.963Z,5.43
2023-02-03T18:58:48.760Z,4.80
2023-02-03T19:01:28.156Z,5.63
2023-02-03T19:03:56.113Z,4.18
2023-02-03T19:06:24.243Z,3.27
2023-02-03T19:08:51.325Z,3.67
2023-02-03T19:11:19.029Z,3.58
2023-02-03T19:13:45.715Z,3.95
2023-02-03T19:16:14.578Z,3.58
2023-02-03T19:18:41.406Z,4.03
2023-02-03T19:21:07.973Z,2.75
2023-02-03T19:23:34.569Z,2.63
2023-02-03T19:26:02.064Z,2.63
2023-02-03T19:28:31.254Z,2.85
2023-02-03T19:31:08.330Z,1.53
2023-02-03T19:33:36.075Z,2.25
2023-02-03T19:36:03.582Z,3.50
2023-02-03T19:38:30.270Z,3.42
2023-02-03T19:40:56.902Z,3.60
2023-02-03T19:43:24.736Z,1.93
2023-02-03T19:45:51.670Z,2.95
2023-02-03T19:48:18.435Z,2.20
2023-02-03T19:50:47.395Z,1.40
2023-02-03T19:53:15.627Z,3.67
2023-02-03T19:55:43.374Z,3.23
2023-02-03T19:58:10.341Z,2.42
2023-02-03T20:00:37.002Z,1.58
2023-02-03T20:03:03.768Z,2.10
2023-02-03T20:05:30.500Z,2.45
2023-02-03T20:07:57.134Z,1.97
2023-02-03T20:10:26.374Z,4.25
2023-02-03T20:12:54.073Z,3.72
2023-02-03T20:15:21.095Z,4.28
2023-02-03T20:17:47.844Z,3.10
2023-02-03T20:20:15.254Z,2.73
2023-02-03T20:22:41.847Z,5.07
2023-02-03T20:25:08.738Z,3.08
2023-02-03T20:27:35.301Z,3.30
2023-02-03T20:30:02.225Z,2.47
2023-02-03T20:32:28.862Z,2.27
2023-02-03T20:34:55.503Z,3.17
2023-02-03T20:37:22.077Z,2.47
2023-02-03T20:39:48.644Z,2.42
2023-02-03T20:42:16.824Z,2.08
2023-02-03T20:44:44.144Z,3.10
2023-02-03T20:47:12.532Z,4.05
2023-02-03T20:49:39.134Z,5.53
2023-02-03T20:52:10.524Z,7.35
2023-02-03T20:54:37.312Z,3.83
2023-02-03T20:57:09.715Z,6.17
2023-02-03T20:59:36.752Z,3.92
2023-02-03T21:02:11.263Z,3.85
2023-02-03T21:04:56.488Z,5.75
2023-02-03T21:07:23.915Z,5.55
2023-02-03T21:09:50.508Z,4.30
2023-02-03T21:12:17.296Z,6.07
2023-02-03T21:14:45.880Z,4.85
2023-02-03T21:17:20.427Z,4.38
2023-02-03T21:19:47.087Z,7.30
2023-02-03T21:22:25.749Z,5.57
